Time;durP1;ratioP1;P1;durP2;ratioP2;P2;SDS_P1;SDS_P2;PMS_P1;PMS_P2;Temp;Humidity;BMP_temperature;BMP_pressure;BME280_temperature;BME280_humidity;BME280_pressure;Samples;Min_cycle;Max_cycle;Signal;HPM_P1;HPM_P2
2022/09/04 00:01:54;;;;;;;1.90;1.80;;;;;;;12.69;100.00;96424.66;5030857;28;103686;-63
2022/09/04 00:04:30;;;;;;;1.60;1.60;;;;;;;12.72;100.00;96424.97;5030334;28;101818;-63
2022/09/04 00:07:09;;;;;;;3.97;1.70;;;;;;;12.64;100.00;96422.00;5030081;28;105296;-63
2022/09/04 00:09:45;;;;;;;1.67;1.57;;;;;;;12.62;100.00;96427.59;5029608;28;105573;-63
2022/09/04 00:12:13;;;;;;;1.60;1.40;;;;;;;12.56;100.00;96425.97;5035024;28;101718;-63
2022/09/04 00:14:45;;;;;;;1.77;1.67;;;;;;;12.53;100.00;96428.34;5031055;27;103132;-63
2022/09/04 00:17:23;;;;;;;2.67;1.87;;;;;;;12.58;100.00;96429.16;5031363;28;101931;-63
2022/09/04 00:19:55;;;;;;;1.73;1.63;;;;;;;12.47;100.00;96432.03;5031376;28;102944;-63
2022/09/04 00:22:32;;;;;;;1.73;1.63;;;;;;;12.48;100.00;96434.44;5030879;28;103366;-63
2022/09/04 00:25:10;;;;;;;1.90;1.70;;;;;;;12.44;100.00;96437.91;5031644;28;102083;-63
2022/09/04 00:27:43;;;;;;;1.70;1.60;;;;;;;12.44;100.00;96433.38;5031355;27;102277;-63
2022/09/04 00:30:14;;;;;;;2.47;1.90;;;;;;;12.49;100.00;96441.38;5029393;28;105712;-63
2022/09/04 00:32:50;;;;;;;2.00;1.90;;;;;;;12.50;100.00;96431.53;5029374;27;101909;-63
2022/09/04 00:35:22;;;;;;;1.90;1.80;;;;;;;12.49;100.00;96432.59;5034248;27;102481;-63
2022/09/04 00:37:56;;;;;;;2.00;1.90;;;;;;;12.55;100.00;96431.56;5029728;28;102034;-63
2022/09/04 00:40:28;;;;;;;2.93;1.70;;;;;;;12.59;100.00;96436.09;5029838;28;105216;-63
2022/09/04 00:43:36;;;;;;;1.83;1.50;;;;;;;12.53;100.00;96436.34;5030351;27;104688;-63
2022/09/04 00:46:50;;;;;;;1.73;1.57;;;;;;;12.39;100.00;96441.38;5030869;27;101927;-63
2022/09/04 00:49:39;;;;;;;1.80;1.70;;;;;;;12.46;100.00;96447.25;5031109;28;102849;-63
2022/09/04 00:52:16;;;;;;;1.80;1.70;;;;;;;12.50;100.00;96447.53;5030342;28;103182;-63
2022/09/04 00:54:52;;;;;;;1.70;1.60;;;;;;;12.42;100.00;96445.38;5029634;28;101800;-63
2022/09/04 00:57:44;;;;;;;2.87;2.23;;;;;;;12.42;100.00;96448.84;5029589;28;105285;-63
2022/09/04 01:00:14;;;;;;;1.77;1.67;;;;;;;12.43;100.00;96453.09;5033524;27;102548;-63
2022/09/04 01:02:57;;;;;;;2.33;1.80;;;;;;;12.32;100.00;96453.31;5029454;28;106193;-63
2022/09/04 01:05:39;;;;;;;2.20;2.00;;;;;;;12.36;100.00;96452.53;5028312;28;105570;-63
2022/09/04 01:08:13;;;;;;;2.00;1.90;;;;;;;12.37;100.00;96450.69;5029421;28;102320;-63
2022/09/04 01:10:51;;;;;;;1.97;1.87;;;;;;;12.43;100.00;96441.66;5029305;28;105301;-63
2022/09/04 01:13:32;;;;;;;1.93;1.73;;;;;;;12.46;100.00;96446.44;5028811;28;104015;-63
2022/09/04 01:16:07;;;;;;;3.00;2.00;;;;;;;12.44;100.00;96449.38;5029306;28;101912;-63
2022/09/04 01:18:44;;;;;;;1.90;1.80;;;;;;;12.42;100.00;96448.84;5029043;28;105279;-63
2022/09/04 01:21:29;;;;;;;1.90;1.80;;;;;;;12.26;100.00;96451.72;5029914;28;102778;-63
2022/09/04 01:24:36;;;;;;;1.90;1.67;;;;;;;12.26;100.00;96459.69;5034187;27;101911;-63
2022/09/04 01:27:08;;;;;;;2.40;1.80;;;;;;;12.18;100.00;96466.31;4987467;28;103508;-63
2022/09/04 01:29:48;;;;;;;1.70;1.60;;;;;;;12.20;100.00;96461.53;5020034;28;102297;-63
2022/09/04 01:32:29;;;;;;;1.80;1.70;;;;;;;12.14;100.00;96464.41;5030609;28;102276;-63
2022/09/04 01:35:05;;;;;;;2.13;1.93;;;;;;;12.23;100.00;96462.88;5029798;28;102653;-63
2022/09/04 01:37:48;;;;;;;2.10;1.90;;;;;;;12.14;100.00;96464.41;5030474;27;101750;-63
2022/09/04 01:40:26;;;;;;;2.13;2.03;;;;;;;12.16;100.00;96467.63;5030549;27;102309;-63
2022/09/04 01:43:01;;;;;;;2.00;1.83;;;;;;;12.17;100.00;96469.25;5029269;28;103102;-63
2022/09/04 01:45:39;;;;;;;2.00;1.90;;;;;;;12.07;100.00;96469.19;5028380;28;102019;-63
2022/09/04 01:48:09;;;;;;;1.93;1.83;;;;;;;12.04;100.00;96475.03;5033000;28;104385;-63
2022/09/04 01:50:40;;;;;;;2.27;1.63;;;;;;;12.00;100.00;96468.59;5030095;28;101948;-63
2022/09/04 01:53:14;;;;;;;1.87;1.77;;;;;;;12.07;100.00;96463.84;5028760;28;105445;-63
2022/09/04 01:55:48;;;;;;;2.77;2.00;;;;;;;12.07;100.00;96466.50;5029705;28;103340;-63
2022/09/04 01:58:28;;;;;;;1.70;1.60;;;;;;;12.12;100.00;96467.34;5030023;28;101812;-63
2022/09/04 02:01:10;;;;;;;2.00;1.90;;;;;;;12.13;100.00;96468.13;5028506;28;105259;-63
2022/09/04 02:03:47;;;;;;;2.30;2.10;;;;;;;12.10;100.00;96472.13;5027922;28;104992;-63
2022/09/04 02:06:27;;;;;;;2.30;1.80;;;;;;;12.12;100.00;96472.69;5028322;28;101945;-63
2022/09/04 02:09:08;;;;;;;2.10;1.90;;;;;;;12.14;100.00;96475.06;5031506;28;105585;-63
2022/09/04 02:11:36;;;;;;;2.30;2.00;;;;;;;12.17;100.00;96469.25;5030136;27;101956;-63
2022/09/04 02:14:19;;;;;;;2.73;1.83;;;;;;;12.18;100.00;96473.50;5029717;28;102327;-63
2022/09/04 02:16:59;;;;;;;2.47;2.17;;;;;;;12.13;100.00;96465.47;5029087;27;102693;-63
2022/09/04 02:19:37;;;;;;;1.87;1.77;;;;;;;12.08;100.00;96470.78;5028548;28;101952;-62
2022/09/04 02:22:14;;;;;;;2.10;2.00;;;;;;;12.00;100.00;96465.94;5029854;27;102454;-63
2022/09/04 02:24:53;;;;;;;1.70;1.60;;;;;;;11.83;100.00;96465.28;5029144;27;104233;-63
2022/09/04 02:27:28;;;;;;;1.93;1.83;;;;;;;11.80;100.00;96471.94;5028031;28;101814;-63
2022/09/04 02:30:02;;;;;;;1.77;1.67;;;;;;;11.77;100.00;96474.31;5029999;28;102494;-63
2022/09/04 02:32:38;;;;;;;2.93;1.87;;;;;;;11.82;100.00;96485.78;5032694;27;102599;-63
2022/09/04 02:35:14;;;;;;;3.17;1.77;;;;;;;11.83;100.00;96478.63;5029854;28;102373;-63
2022/09/04 02:37:52;;;;;;;3.20;1.83;;;;;;;11.86;100.00;96478.09;5029124;28;102337;-62
2022/09/04 02:40:28;;;;;;;2.57;2.07;;;;;;;11.89;100.00;96481.03;5029536;28;101689;-63
2022/09/04 02:43:11;;;;;;;2.47;2.00;;;;;;;11.90;100.00;96482.66;5029546;28;102377;-62
2022/09/04 02:45:45;;;;;;;2.10;1.80;;;;;;;11.88;100.00;96486.66;5027495;28;105610;-63
2022/09/04 02:48:21;;;;;;;1.40;1.40;;;;;;;11.89;100.00;96491.69;5028050;28;101952;-63
2022/09/04 02:51:05;;;;;;;1.50;1.40;;;;;;;11.88;100.00;96489.31;5029402;28;102877;-62
2022/09/04 02:53:40;;;;;;;1.67;1.60;;;;;;;11.83;100.00;96486.59;5028948;27;102782;-63
2022/09/04 02:56:20;;;;;;;1.97;1.77;;;;;;;11.86;100.00;96483.41;5035370;27;102310;-63
2022/09/04 02:59:02;;;;;;;1.70;1.60;;;;;;;11.88;100.00;96474.13;5032261;27;102716;-63
2022/09/04 03:01:37;;;;;;;1.90;1.67;;;;;;;11.93;100.00;96481.34;5032909;28;101760;-62
2022/09/04 03:04:13;;;;;;;1.60;1.50;;;;;;;11.94;100.00;96481.06;5032806;28;103048;-63
2022/09/04 03:06:49;;;;;;;1.70;1.60;;;;;;;11.97;100.00;96482.44;5031509;28;102581;-62
2022/09/04 03:09:23;;;;;;;2.00;1.50;;;;;;;11.92;100.00;96482.41;5032909;28;102213;-62
2022/09/04 03:11:58;;;;;;;2.30;1.70;;;;;;;11.82;100.00;96482.34;5032629;28;102849;-63
2022/09/04 03:14:33;;;;;;;1.50;1.50;;;;;;;11.75;100.00;96482.56;5032041;28;101924;-63
2022/09/04 03:17:08;;;;;;;2.13;1.90;;;;;;;11.65;100.00;96477.13;5032633;28;101687;-63
2022/09/04 03:19:43;;;;;;;2.00;1.90;;;;;;;11.75;100.00;96487.06;5033811;28;105615;-63
2022/09/04 03:22:16;;;;;;;2.30;2.20;;;;;;;11.80;100.00;96495.09;5030681;28;102318;-63
2022/09/04 03:25:06;;;;;;;2.30;2.10;;;;;;;11.75;100.00;96492.41;5032439;28;102501;-62
2022/09/04 03:27:34;;;;;;;1.87;1.77;;;;;;;11.77;100.00;96495.63;5030304;28;105868;-62
2022/09/04 03:30:07;;;;;;;2.00;1.90;;;;;;;11.74;100.00;96501.44;5032542;28;102019;-63
2022/09/04 03:32:45;;;;;;;1.90;1.80;;;;;;;11.69;100.00;96502.22;5032633;28;102336;-62
2022/09/04 03:35:20;;;;;;;2.37;2.27;;;;;;;11.76;100.00;96500.13;5031534;27;102558;-63
2022/09/04 03:38:07;;;;;;;1.77;1.70;;;;;;;11.84;100.00;96501.53;5032603;28;101860;-62
2022/09/04 03:40:40;;;;;;;2.13;2.00;;;;;;;11.72;100.00;96499.03;5032293;28;102402;-62
2022/09/04 03:43:26;;;;;;;3.50;2.43;;;;;;;11.76;100.00;96508.13;5035102;27;102663;-63
2022/09/04 03:46:00;;;;;;;2.40;2.20;;;;;;;11.72;100.00;96503.56;5030775;28;106433;-62
2022/09/04 03:48:47;;;;;;;2.50;2.30;;;;;;;11.77;100.00;96503.63;5029842;28;105542;-62
2022/09/04 03:51:21;;;;;;;2.37;2.20;;;;;;;11.75;100.00;96505.72;5031983;28;101698;-62
2022/09/04 03:54:00;;;;;;;3.10;2.60;;;;;;;11.76;100.00;96507.31;5030684;28;105538;-63
2022/09/04 03:56:59;;;;;;;2.73;2.30;;;;;;;11.75;100.00;96508.38;5030168;28;105711;-62
2022/09/04 03:59:43;;;;;;;2.30;1.93;;;;;;;11.78;100.00;96508.66;5027796;27;102529;-62
2022/09/04 04:02:23;;;;;;;2.70;2.40;;;;;;;11.78;100.00;96513.22;5030577;28;103576;-62
2022/09/04 04:05:26;;;;;;;2.40;1.97;;;;;;;11.68;100.00;96516.59;5029820;28;105174;-63
2022/09/04 04:08:26;;;;;;;2.47;2.03;;;;;;;11.59;100.00;96522.63;5029087;27;101733;-62
2022/09/04 04:11:02;;;;;;;2.50;2.30;;;;;;;11.56;100.00;96521.25;5029688;28;105457;-62
2022/09/04 04:13:36;;;;;;;2.23;2.13;;;;;;;11.55;100.00;96527.63;5031835;28;102126;-63
2022/09/04 04:16:21;;;;;;;2.60;2.40;;;;;;;11.56;100.00;96531.09;5031725;28;102358;-62
2022/09/04 04:19:14;;;;;;;2.70;2.50;;;;;;;11.62;100.00;96535.44;5029524;28;106762;-62
2022/09/04 04:21:56;;;;;;;2.40;2.20;;;;;;;11.69;100.00;96536.03;5031182;28;101749;-62
2022/09/04 04:24:37;;;;;;;3.13;2.30;;;;;;;11.63;100.00;96537.06;5031043;28;104037;-62
2022/09/04 04:27:24;;;;;;;2.40;2.20;;;;;;;11.65;100.00;96540.25;5029467;28;105432;-62
2022/09/04 04:30:07;;;;;;;2.17;2.07;;;;;;;11.69;100.00;96539.50;5033516;28;101817;-62
2022/09/04 04:32:52;;;;;;;2.27;2.03;;;;;;;11.68;100.00;96539.75;5029473;28;105577;-62
2022/09/04 04:35:28;;;;;;;3.17;2.07;;;;;;;11.65;100.00;96548.25;5030937;28;101988;-62
2022/09/04 04:38:16;;;;;;;2.10;2.00;;;;;;;11.71;100.00;96544.56;5029838;28;105299;-63
2022/09/04 04:41:13;;;;;;;2.47;2.27;;;;;;;11.72;100.00;96562.19;5030711;28;103108;-63
2022/09/04 04:43:55;;;;;;;2.67;2.47;;;;;;;11.75;100.00;96559.00;5016378;28;102033;-63
2022/09/04 04:46:35;;;;;;;2.83;2.50;;;;;;;11.73;100.00;96553.91;5029619;28;105524;-62
2022/09/04 04:49:37;;;;;;;2.43;2.30;;;;;;;11.71;100.00;96565.88;5030327;28;102562;-63
2022/09/04 04:52:20;;;;;;;2.50;2.30;;;;;;;11.80;100.00;96572.38;5028071;28;102136;-63
2022/09/04 04:55:05;;;;;;;2.33;2.13;;;;;;;11.82;100.00;96578.28;5034051;28;102289;-63
2022/09/04 04:57:45;;;;;;;2.40;2.20;;;;;;;11.94;100.00;96576.22;5031119;28;101710;-63
2022/09/04 05:00:18;;;;;;;2.30;2.20;;;;;;;11.97;100.00;96584.53;5031127;28;102728;-63
2022/09/04 05:03:00;;;;;;;2.50;2.27;;;;;;;11.99;100.00;96584.28;5030296;27;103136;-63
2022/09/04 05:05:48;;;;;;;2.53;2.43;;;;;;;11.99;100.00;96586.94;5030205;27;102317;-63
2022/09/04 05:08:25;;;;;;;2.53;2.33;;;;;;;12.07;100.00;96591.78;5030773;27;102867;-63
2022/09/04 05:10:58;;;;;;;2.73;2.50;;;;;;;12.14;100.00;96592.38;5030324;28;102636;-63
2022/09/04 05:13:37;;;;;;;3.03;2.83;;;;;;;12.23;100.00;96597.00;5029196;28;101871;-63
2022/09/04 05:16:12;;;;;;;3.50;3.20;;;;;;;12.31;100.00;96599.19;5029197;28;105618;-63
2022/09/04 05:18:48;;;;;;;3.07;2.87;;;;;;;12.37;100.00;96602.69;5033270;27;102622;-63
2022/09/04 05:21:23;;;;;;;2.97;2.77;;;;;;;12.42;100.00;96605.41;5030599;28;102343;-63
2022/09/04 05:23:56;;;;;;;3.13;2.80;;;;;;;12.57;100.00;96618.81;5028386;28;105137;-63
2022/09/04 05:26:33;;;;;;;2.60;2.50;;;;;;;12.58;100.00;96612.41;5028964;28;101921;-63
2022/09/04 05:29:10;;;;;;;2.83;2.57;;;;;;;12.62;100.00;96613.53;5028960;28;105536;-63
2022/09/04 05:31:47;;;;;;;2.50;2.37;;;;;;;12.71;100.00;96620.00;5029877;28;102666;-63
2022/09/04 05:34:26;;;;;;;2.90;2.70;;;;;;;12.70;100.00;96624.50;5030298;28;101692;-63
2022/09/04 05:37:08;;;;;;;2.70;2.50;;;;;;;12.76;100.00;96625.38;5030764;28;102882;-62
2022/09/04 05:39:47;;;;;;;2.90;2.60;;;;;;;12.89;100.00;96631.06;5029670;28;102827;-62
2022/09/04 05:42:38;;;;;;;6.17;3.03;;;;;;;12.97;100.00;96635.13;5032524;28;101892;-63
2022/09/04 05:45:21;;;;;;;3.07;2.77;;;;;;;12.99;100.00;96633.81;5028625;28;105944;-62
2022/09/04 05:47:59;;;;;;;2.50;2.40;;;;;;;13.01;100.00;96646.88;5029326;28;101890;-63
2022/09/04 05:50:48;;;;;;;2.97;2.77;;;;;;;13.04;100.00;96647.16;5030458;28;102668;-62
2022/09/04 05:53:48;;;;;;;3.27;2.97;;;;;;;13.10;100.00;96651.47;5029978;28;103077;-62
2022/09/04 05:56:42;;;;;;;3.50;3.20;;;;;;;13.28;100.00;96652.88;5029062;28;101914;-62
2022/09/04 05:59:27;;;;;;;4.50;3.70;;;;;;;13.39;100.00;96654.53;5030435;27;102460;-62
2022/09/04 06:02:23;;;;;;;4.67;3.87;;;;;;;13.57;100.00;96656.75;5029935;28;103124;-62
2022/09/04 06:05:05;;;;;;;5.10;3.90;;;;;;;13.85;100.00;96670.44;5029042;28;101950;-62
2022/09/04 06:08:01;;;;;;;9.53;4.70;;;;;;;14.00;100.00;96661.69;5032895;28;102271;-63
2022/09/04 06:10:40;;;;;;;4.03;3.80;;;;;;;14.05;100.00;96673.19;5030383;27;101733;-68
2022/09/04 06:13:30;;;;;;;4.40;4.00;;;;;;;14.15;100.00;96673.19;5029034;28;105148;-62
2022/09/04 06:16:17;;;;;;;4.50;4.10;;;;;;;14.24;100.00;96678.84;5028081;28;105858;-63
2022/09/04 06:19:06;;;;;;;4.17;3.77;;;;;;;14.30;100.00;96672.44;5028540;28;101885;-63
2022/09/04 06:22:17;;;;;;;4.27;3.83;;;;;;;14.42;100.00;96662.28;5028370;28;105142;-63
2022/09/04 06:25:04;;;;;;;4.43;4.13;;;;;;;14.51;100.00;96668.72;5021344;28;105744;-62
2022/09/04 06:27:47;;;;;;;6.17;4.53;;;;;;;14.59;100.00;96665.47;5029946;28;101728;-63
2022/09/04 06:30:16;;;;;;;5.00;4.33;;;;;;;14.79;100.00;96660.94;5029563;27;105440;-63
2022/09/04 06:33:22;;;;;;;4.77;4.37;;;;;;;15.16;100.00;96663.25;5034207;28;102032;-63
2022/09/04 06:36:29;;;;;;;4.60;4.30;;;;;;;15.32;100.00;96664.81;5033392;28;102050;-63
2022/09/04 06:39:13;;;;;;;4.83;4.53;;;;;;;15.66;100.00;96671.16;5027668;27;103221;-63
2022/09/04 06:41:54;;;;;;;4.83;4.30;;;;;;;15.84;100.00;96679.38;5033413;28;101760;-63
2022/09/04 06:44:35;;;;;;;4.40;4.10;;;;;;;16.04;100.00;96670.41;5031767;28;106338;-63
2022/09/04 06:47:16;;;;;;;4.20;3.90;;;;;;;16.14;100.00;96667.66;5031072;28;105618;-63
2022/09/04 06:50:12;;;;;;;4.20;3.90;;;;;;;16.29;100.00;96670.25;5033087;28;101768;-63
2022/09/04 06:52:50;;;;;;;3.30;3.10;;;;;;;16.37;100.00;96669.66;5033001;28;102328;-63
2022/09/04 06:55:28;;;;;;;3.30;3.10;;;;;;;16.53;100.00;96665.81;5036122;27;102785;-63
2022/09/04 06:58:25;;;;;;;3.57;3.27;;;;;;;16.62;100.00;96674.88;5033188;28;102470;-63
2022/09/04 07:00:57;;;;;;;3.07;2.87;;;;;;;16.83;100.00;96681.66;5032539;28;101746;-63
2022/09/04 07:03:36;;;;;;;3.23;2.90;;;;;;;17.05;100.00;96673.94;5032863;28;102009;-63
2022/09/04 07:06:11;;;;;;;2.60;2.40;;;;;;;17.14;100.00;96662.28;5031331;28;105009;-63
2022/09/04 07:09:00;;;;;;;2.33;2.23;;;;;;;17.20;100.00;96665.69;5032465;28;102627;-63
2022/09/04 07:11:43;;;;;;;2.97;2.67;;;;;;;17.48;100.00;96672.94;5032639;28;101730;-63
2022/09/04 07:14:43;;;;;;;2.07;1.97;;;;;;;17.36;100.00;96681.41;5031664;28;105732;-63
2022/09/04 07:17:17;;;;;;;2.40;2.20;;;;;;;17.58;100.00;96678.22;5030656;28;104748;-63
2022/09/04 07:20:20;;;;;;;2.10;2.00;;;;;;;17.62;100.00;96685.44;5035994;28;101732;-62
2022/09/04 07:23:03;;;;;;;2.10;2.00;;;;;;;17.92;100.00;96682.34;5032149;27;102795;-62
2022/09/04 07:25:44;;;;;;;4.00;1.90;;;;;;;18.03;100.00;96674.97;5032604;28;103131;-63
2022/09/04 07:28:34;;;;;;;2.13;2.03;;;;;;;18.17;100.00;96681.19;5032358;27;102735;-62
2022/09/04 07:31:09;;;;;;;2.30;1.90;;;;;;;18.21;100.00;96683.00;5028571;28;105700;-62
2022/09/04 07:33:46;;;;;;;2.20;2.00;;;;;;;18.35;100.00;96675.03;5030647;28;102022;-62
2022/09/04 07:36:18;;;;;;;1.83;1.73;;;;;;;18.40;100.00;96674.97;5032626;28;102327;-63
2022/09/04 07:38:53;;;;;;;2.00;1.80;;;;;;;18.61;100.00;96676.25;5032132;27;102923;-63
2022/09/04 07:41:30;;;;;;;2.17;1.90;;;;;;;18.76;100.00;96681.41;5031566;27;101786;-63
2022/09/04 07:44:06;;;;;;;1.70;1.60;;;;;;;18.80;100.00;96679.72;5033638;28;104504;-63
2022/09/04 07:46:49;;;;;;;1.80;1.70;;;;;;;18.97;100.00;96682.66;5032327;28;101753;-63
2022/09/04 07:49:57;;;;;;;2.00;1.90;;;;;;;19.06;100.00;96695.16;5030815;28;104356;-63
2022/09/04 07:52:49;;;;;;;2.30;1.60;;;;;;;19.19;100.00;96694.38;5031436;28;104564;-63
2022/09/04 07:55:40;;;;;;;1.70;1.60;;;;;;;19.27;100.00;96698.31;5032446;28;101756;-63
2022/09/04 07:58:43;;;;;;;1.80;1.70;;;;;;;19.22;100.00;96698.41;5032502;27;102258;-63
2022/09/04 08:01:29;;;;;;;1.60;1.50;;;;;;;19.54;100.00;96701.06;5031487;28;102693;-63
2022/09/04 08:04:14;;;;;;;1.50;1.40;;;;;;;19.73;100.00;96705.25;5032146;28;101722;-62
2022/09/04 08:06:49;;;;;;;1.60;1.57;;;;;;;19.79;100.00;96708.66;5030248;28;105519;-62
2022/09/04 08:09:37;;;;;;;1.70;1.60;;;;;;;19.72;100.00;96710.97;5033516;28;105359;-62
2022/09/04 08:12:28;;;;;;;1.60;1.50;;;;;;;20.10;100.00;96715.84;5030514;28;105459;-62
2022/09/04 08:14:56;;;;;;;1.40;1.30;;;;;;;20.15;100.00;96715.75;5031262;28;102685;-62
2022/09/04 08:17:54;;;;;;;1.77;1.67;;;;;;;20.42;100.00;96712.19;5031436;28;101872;-62
2022/09/04 08:20:41;;;;;;;1.43;1.33;;;;;;;20.18;100.00;96717.84;5031984;28;102831;-63
2022/09/04 08:23:23;;;;;;;2.10;1.50;;;;;;;20.23;100.00;96711.53;5029730;28;105486;-63
2022/09/04 08:26:10;;;;;;;1.70;1.43;;;;;;;20.47;100.00;96717.47;5031816;28;101740;-62
2022/09/04 08:28:55;;;;;;;2.20;1.30;;;;;;;20.61;100.00;96716.31;5031887;28;102386;-62
2022/09/04 08:31:31;;;;;;;1.80;1.13;;;;;;;20.73;100.00;96719.31;5031258;27;101753;-63
2022/09/04 08:34:28;;;;;;;1.23;1.13;;;;;;;21.06;100.00;96717.16;5033567;28;102117;-62
2022/09/04 08:37:09;;;;;;;3.50;1.40;;;;;;;20.97;100.00;96713.59;5030786;28;102598;-62
2022/09/04 08:39:46;;;;;;;1.10;1.10;;;;;;;21.31;100.00;96719.25;5029991;28;101905;-62
2022/09/04 08:42:42;;;;;;;1.20;1.20;;;;;;;21.41;100.00;96722.47;5030187;28;105449;-62
2022/09/04 08:45:53;;;;;;;1.73;1.40;;;;;;;21.45;100.00;96730.75;5030776;28;102786;-62
2022/09/04 08:48:52;;;;;;;1.60;1.50;;;;;;;21.60;100.00;96736.59;5031611;27;101729;-62
2022/09/04 08:51:57;;;;;;;1.77;1.33;;;;;;;21.83;100.00;96729.22;5025966;28;102309;-63
2022/09/04 08:54:59;;;;;;;1.20;1.20;;;;;;;21.94;100.00;96722.41;5028339;27;105410;-62
2022/09/04 08:58:05;;;;;;;1.20;1.10;;;;;;;21.73;100.00;96721.38;5029452;28;102469;-63
2022/09/04 09:00:43;;;;;;;1.23;1.20;;;;;;;21.82;100.00;96719.50;5030713;27;102516;-62
2022/09/04 09:03:58;;;;;;;0.97;0.97;;;;;;;22.08;100.00;96723.09;5029915;28;101896;-62
2022/09/04 09:07:08;;;;;;;1.57;1.10;;;;;;;22.23;100.00;96725.34;5029414;28;105062;-62
2022/09/04 09:10:08;;;;;;;1.37;1.27;;;;;;;22.15;100.00;96728.84;5029093;28;105991;-62
2022/09/04 09:13:17;;;;;;;1.17;1.10;;;;;;;22.84;100.00;96719.69;5028876;27;101966;-63
2022/09/04 09:16:16;;;;;;;1.30;1.20;;;;;;;22.78;100.00;96718.25;5031204;28;102341;-62
2022/09/04 09:19:04;;;;;;;1.00;0.90;;;;;;;22.98;100.00;96721.13;5030354;28;102656;-63
2022/09/04 09:21:43;;;;;;;1.20;1.13;;;;;;;23.06;100.00;96719.50;5029327;28;101899;-63
2022/09/04 09:24:52;;;;;;;1.10;1.10;;;;;;;23.26;100.00;96716.16;5032246;28;103575;-63
2022/09/04 09:31:05;;;;;;;1.20;1.20;;;;;;;23.61;100.00;96712.22;5028323;28;105438;-63
2022/09/04 09:33:59;;;;;;;0.90;0.90;;;;;;;23.30;100.00;96711.66;5027923;28;105937;-63
2022/09/04 09:36:48;;;;;;;1.53;1.10;;;;;;;23.08;100.00;96711.84;5028956;28;102101;-63
2022/09/04 09:39:43;;;;;;;1.20;1.10;;;;;;;23.51;100.00;96707.13;5029030;28;104004;-63
2022/09/04 09:42:41;;;;;;;2.47;1.27;;;;;;;23.82;100.00;96702.22;5029174;28;104844;-63
2022/09/04 09:45:46;;;;;;;1.10;1.10;;;;;;;24.12;100.00;96704.66;4985787;27;102152;-63
2022/09/04 09:48:49;;;;;;;0.90;0.90;;;;;;;24.32;100.00;96701.19;5022485;28;106464;-63
2022/09/04 09:51:43;;;;;;;1.40;1.10;;;;;;;24.58;100.00;96704.53;5032389;28;102763;-63
2022/09/04 09:54:30;;;;;;;1.00;1.00;;;;;;;24.28;100.00;96699.44;5030026;28;103988;-62
2022/09/04 09:57:22;;;;;;;1.13;1.10;;;;;;;24.64;100.00;96697.75;5029218;28;102650;-63
2022/09/04 10:00:14;;;;;;;1.67;1.23;;;;;;;24.87;100.00;96699.03;5030353;28;101791;-62
2022/09/04 10:03:24;;;;;;;1.17;1.17;;;;;;;25.04;100.00;96701.59;5028633;28;105257;-63
2022/09/04 10:06:09;;;;;;;1.80;1.03;;;;;;;25.16;100.00;96695.38;5030558;27;104250;-63
2022/09/04 10:09:09;;;;;;;1.40;1.30;;;;;;;24.32;100.00;96705.81;5033599;27;102353;-63
2022/09/04 10:12:14;;;;;;;1.30;1.20;;;;;;;24.92;100.00;96709.72;5031831;28;105786;-63
2022/09/04 10:15:20;;;;;;;1.10;1.10;;;;;;;25.23;100.00;96704.59;5032861;28;102628;-63
2022/09/04 10:18:24;;;;;;;1.20;1.20;;;;;;;25.35;100.00;96707.41;5035107;28;101896;-63
2022/09/04 10:21:29;;;;;;;1.47;1.37;;;;;;;24.95;100.00;96702.81;5032727;27;103110;-62
2022/09/04 10:24:18;;;;;;;1.87;1.37;;;;;;;25.33;100.00;96712.38;5011600;27;101966;-63
2022/09/04 10:27:28;;;;;;;1.50;1.30;;;;;;;25.97;100.00;96713.41;5033450;28;102304;-63
2022/09/04 10:30:06;;;;;;;1.70;1.07;;;;;;;26.06;100.00;96708.66;5031921;28;102887;-63
2022/09/04 10:33:06;;;;;;;2.47;1.30;;;;;;;25.18;100.00;96710.25;5031889;28;101854;-63
2022/09/04 10:35:44;;;;;;;1.10;1.10;;;;;;;25.02;100.00;96708.50;5033356;28;102335;-62
2022/09/04 10:42:02;;;;;;;1.20;1.20;;;;;;;25.99;100.00;96694.78;5033222;27;101877;-63
2022/09/04 10:45:00;;;;;;;1.40;1.30;;;;;;;26.77;100.00;96704.25;5035949;28;102909;-63
2022/09/04 10:47:43;;;;;;;10.13;9.13;;;;;;;26.70;100.00;96714.16;5032104;27;101928;-62
2022/09/04 10:50:40;;;;;;;1.53;1.43;;;;;;;25.99;100.00;96700.22;5032831;28;102562;-62
2022/09/04 10:53:50;;;;;;;1.53;1.10;;;;;;;25.16;100.00;96709.78;5032473;28;102583;-63
2022/09/04 10:56:22;;;;;;;1.57;1.10;;;;;;;25.43;100.00;96708.41;5031200;28;102156;-62
2022/09/04 10:59:20;;;;;;;1.80;1.03;;;;;;;24.58;100.00;96709.19;5031133;28;105943;-63
2022/09/04 11:02:15;;;;;;;0.90;0.90;;;;;;;24.48;100.00;96698.66;5030350;28;106536;-63
2022/09/04 11:05:03;;;;;;;1.20;1.10;;;;;;;24.77;100.00;96690.47;5031263;28;101947;-62
2022/09/04 11:07:48;;;;;;;4.30;3.90;;;;;;;24.94;100.00;96695.75;5032471;28;102976;-62
2022/09/04 11:10:31;;;;;;;8.37;7.67;;;;;;;25.34;100.00;96696.84;5035088;28;102666;-63
2022/09/04 11:13:49;;;;;;;2.70;2.50;;;;;;;25.56;100.00;96701.88;5032636;28;102908;-63
2022/09/04 11:16:45;;;;;;;2.83;1.30;;;;;;;25.48;100.00;96705.47;5030076;27;105371;-62
2022/09/04 11:19:54;;;;;;;1.50;1.40;;;;;;;25.95;100.00;96699.34;5032456;27;101946;-63
2022/09/04 11:22:55;;;;;;;1.60;1.50;;;;;;;26.35;100.00;96697.50;5030930;27;102302;-62
2022/09/04 11:26:04;;;;;;;15.93;13.17;;;;;;;26.73;100.00;96705.25;5030209;28;105342;-62
2022/09/04 11:29:00;;;;;;;1.30;1.20;;;;;;;26.06;100.00;96697.75;5031397;28;101768;-63
2022/09/04 11:31:47;;;;;;;1.10;1.10;;;;;;;24.99;100.00;96695.53;5032430;28;102858;-63
2022/09/04 11:34:55;;;;;;;3.20;2.73;;;;;;;25.15;100.00;96693.78;5035316;28;102714;-63
2022/09/04 11:37:58;;;;;;;13.43;12.07;;;;;;;25.16;100.00;96693.47;5008941;28;105548;-63
2022/09/04 11:41:15;;;;;;;7.80;7.10;;;;;;;25.40;100.00;96703.66;5028555;28;105471;-63
2022/09/04 11:44:18;;;;;;;50.40;45.73;;;;;;;26.06;100.00;96689.56;5031671;28;101924;-63
2022/09/04 11:47:10;;;;;;;24.67;22.07;;;;;;;26.60;100.00;96690.84;5030798;28;102525;-63
2022/09/04 11:49:58;;;;;;;70.83;63.17;;;;;;;27.12;100.00;96690.78;5030425;27;102953;-63
2022/09/04 11:52:34;;;;;;;101.40;90.37;;;;;;;27.31;100.00;96688.22;5029306;28;101906;-63
2022/09/04 11:55:32;;;;;;;55.90;45.87;;;;;;;27.55;96.65;96688.88;5029421;28;104800;-64
2022/09/04 11:58:16;;;;;;;145.07;111.27;;;;;;;27.81;100.00;96697.41;5028508;28;105731;-70
2022/09/04 12:00:57;;;;;;;33.50;25.63;;;;;;;28.43;100.00;96699.28;5033378;28;101728;-66
2022/09/04 12:03:56;;;;;;;34.60;28.37;;;;;;;28.50;91.91;96693.97;5030406;27;103187;-64
2022/09/04 12:06:36;;;;;;;10.60;9.60;;;;;;;28.72;100.00;96696.03;5029376;28;101773;-65
2022/09/04 12:09:31;;;;;;;1.43;1.33;;;;;;;28.52;85.53;96697.13;5031878;28;102383;-65
2022/09/04 12:12:31;;;;;;;1.27;1.17;;;;;;;28.68;98.08;96693.22;5029612;28;106884;-65
2022/09/04 12:15:21;;;;;;;0.90;0.90;;;;;;;28.86;94.89;96690.84;5030377;28;101941;-65
2022/09/04 12:18:31;;;;;;;11.18;9.63;;;;;;;29.17;91.68;96693.44;5030094;28;105714;-65
2022/09/04 12:21:34;;;;;;;1.87;1.47;;;;;;;29.68;90.69;96692.09;5030791;27;102562;-65
2022/09/04 12:24:26;;;;;;;6.50;5.93;;;;;;;29.74;78.51;96696.13;5031278;27;101712;-65
2022/09/04 12:27:28;;;;;;;28.08;25.38;;;;;;;29.20;92.15;96692.75;5031878;27;105239;-65
2022/09/04 12:30:05;;;;;;;14.30;12.85;;;;;;;27.80;100.00;96692.28;5012248;28;101925;-65
2022/09/04 12:33:18;;;;;;;1.85;1.45;;;;;;;26.89;100.00;96678.84;5030348;28;102467;-65
2022/09/04 12:36:21;;;;;;;1.20;1.10;;;;;;;26.45;100.00;96688.84;5030235;28;103161;-65
2022/09/04 12:39:33;;;;;;;195.63;175.87;;;;;;;26.77;100.00;96684.34;5029084;27;101990;-65
2022/09/04 12:42:09;;;;;;;11.93;10.80;;;;;;;26.62;100.00;96676.88;4964594;28;102574;-65
2022/09/04 12:44:49;;;;;;;126.67;107.17;;;;;;;27.86;100.00;96678.00;5022479;28;106070;-65
2022/09/04 12:47:31;;;;;;;29.37;24.93;;;;;;;28.89;100.00;96685.41;5029370;28;102041;-65
2022/09/04 12:50:29;;;;;;;2.10;2.00;;;;;;;29.23;93.89;96687.34;5029922;27;102378;-65